Worland, WY

10:11 PM MDT on April 18, 2015 (GMT -0600)
Worland Municipal | | Change Station
CLOSE
Current Station
Airport
Location: Worland,
Elevation: 4226 ft
Nearby Weather Stations

Elev 4226 ft 43.97 °N, 107.95 °W | Updated 18 minutes ago

Overcast
Overcast
46 °F
Feels Like 38 °F
N
22
Wind Variable Wind from NNW

Today
High -- | Low -- °F
--% Chance of Precip.
Yesterday
High -- | Low -- °F
Precip. -- in
6:23 AM 7:59 PM
New Moon, 0% visible
Pressure 30.13 in
Visibility 10.0 miles
Clouds Mostly Cloudy 9000 ft
Overcast 11000 ft
Windchill 38 °F
Dew Point 27 °F
Humidity 47%
Rainfall 0.00 in
Snow Depth Not available.
UV 0 out of 12
Pollen 9.80 out of 12
Air Quality Not available.
Flu Activity Local Activity
METAR KWRL 190353Z AUTO 33019KT 10SM BKN090 OVC110 08/M03 A3014 RMK AO2 PK WND 33031/0326 SLP203 T00781028

More Conditions Fewer Conditions

Pressure 30.13 in
Visibility 10.0 miles
Clouds Mostly Cloudy 9000 ft
Overcast 11000 ft
Windchill 38 °F
Dew Point 27 °F
Humidity 47%
Rainfall 0.00 in
Snow Depth Not available.
UV 0 out of 12
Pollen 9.80 out of 12
Air Quality Not available.
Flu Activity Local Activity
METAR KWRL 190353Z AUTO 33019KT 10SM BKN090 OVC110 08/M03 A3014 RMK AO2 PK WND 33031/0326 SLP203 T00781028

More Conditions Fewer Conditions

10-Day Weather Forecast

Almanac

Astronomy

Apr. 18, 2015 Rise Set
Actual Time
Civil Twilight
Nautical Twilight
Astronomical Twilight
Moon
Length of Visible Light
Length of Day
Tomorrow will be .
, % of the Moon is Illuminated

Today's Extremes

State Highs State Lows

Community

WunderPhotos

Upload Photos

1,814,721 photos uploaded!

WunderBlogs® & News

Nearby

Air Quality

  Air Quality AQ Index Pollutant
Not available.

Snow Depth

Station Depth Elevation

Earthquake Activity

City Distance Mag. Time & Date
Minimum magnitude displayed is 2.5.

Coastal Water Temperatures

Place Temperature

Stations

Nearby Weather Stations

Station Location Temp. Windchill Dew Point Humidity Wind Precip. Elev Updated Type